createdAt,value
2022-11-29T00:01:45.375Z,18.60
2022-11-29T00:03:49.031Z,17.07
2022-11-29T00:05:53.263Z,19.30
2022-11-29T00:07:56.275Z,17.23
2022-11-29T00:09:59.230Z,16.93
2022-11-29T00:12:14.407Z,17.30
2022-11-29T00:14:19.128Z,21.33
2022-11-29T00:16:22.140Z,19.40
2022-11-29T00:18:25.088Z,18.30
2022-11-29T00:20:27.990Z,16.93
2022-11-29T00:22:30.972Z,17.80
2022-11-29T00:24:34.666Z,18.47
2022-11-29T00:26:38.095Z,20.83
2022-11-29T00:28:42.421Z,19.90
2022-11-29T00:30:45.460Z,19.90
2022-11-29T00:32:49.066Z,17.97
2022-11-29T00:34:52.015Z,16.93
2022-11-29T00:36:55.153Z,18.93
2022-11-29T00:38:58.092Z,20.57
2022-11-29T00:41:00.997Z,19.57
2022-11-29T00:43:03.985Z,21.33
2022-11-29T00:45:09.535Z,20.27
2022-11-29T00:47:12.483Z,21.27
2022-11-29T00:49:15.656Z,23.07
2022-11-29T00:51:18.670Z,26.10
2022-11-29T00:53:21.775Z,24.87
2022-11-29T00:55:24.792Z,25.33
2022-11-29T00:57:27.854Z,25.20
2022-11-29T00:59:31.307Z,22.37
2022-11-29T01:01:35.847Z,22.73
2022-11-29T01:03:39.047Z,23.50
2022-11-29T01:05:42.929Z,24.67
2022-11-29T01:07:45.928Z,22.70
2022-11-29T01:09:49.028Z,24.40
2022-11-29T01:11:51.946Z,23.77
2022-11-29T01:13:57.915Z,25.20
2022-11-29T01:16:01.053Z,22.93
2022-11-29T01:18:05.693Z,23.33
2022-11-29T01:20:11.667Z,21.77
2022-11-29T01:22:14.812Z,20.73
2022-11-29T01:24:17.790Z,23.63
2022-11-29T01:26:23.341Z,28.83
2022-11-29T01:28:26.542Z,24.87
2022-11-29T01:30:29.594Z,24.97
2022-11-29T01:32:32.564Z,29.73
2022-11-29T01:34:38.214Z,21.83
2022-11-29T01:36:41.235Z,21.93
2022-11-29T01:38:44.177Z,21.07
2022-11-29T01:40:56.972Z,22.43
2022-11-29T01:42:59.916Z,23.57
2022-11-29T01:45:08.968Z,21.70
2022-11-29T01:47:12.416Z,23.40
2022-11-29T01:49:18.391Z,24.10
2022-11-29T01:51:23.138Z,21.03
2022-11-29T01:53:26.163Z,22.87
2022-11-29T01:55:29.364Z,22.23
2022-11-29T01:57:34.253Z,21.43
2022-11-29T01:59:39.954Z,23.83
2022-11-29T02:01:43.135Z,21.50
2022-11-29T02:03:46.277Z,22.93
2022-11-29T02:05:51.753Z,21.03
2022-11-29T02:07:58.742Z,19.93
2022-11-29T02:10:02.178Z,24.33
2022-11-29T02:12:18.187Z,24.10
2022-11-29T02:14:35.211Z,29.23
2022-11-29T02:16:47.663Z,20.37
2022-11-29T02:18:59.022Z,21.53
2022-11-29T02:21:22.879Z,21.30
2022-11-29T02:24:00.756Z,25.40
2022-11-29T02:26:18.121Z,21.70
2022-11-29T02:29:00.697Z,23.20
2022-11-29T02:31:30.919Z,22.13
2022-11-29T02:33:53.573Z,22.50
2022-11-29T02:36:20.407Z,22.17
2022-11-29T02:38:38.516Z,27.47
2022-11-29T02:41:05.361Z,20.30
2022-11-29T02:43:47.413Z,22.00
2022-11-29T02:46:04.131Z,23.03
2022-11-29T02:48:21.592Z,22.27
2022-11-29T02:50:37.821Z,24.17
2022-11-29T02:52:47.572Z,19.10
2022-11-29T02:54:56.331Z,23.07
2022-11-29T02:57:05.426Z,22.80
2022-11-29T02:59:16.016Z,22.77
2022-11-29T03:01:24.755Z,22.57
2022-11-29T03:03:34.232Z,19.47
2022-11-29T03:05:44.820Z,19.57
2022-11-29T03:07:54.698Z,18.93
2022-11-29T03:10:03.745Z,24.20
2022-11-29T03:12:18.458Z,22.07
2022-11-29T03:14:26.080Z,24.93
2022-11-29T03:16:42.544Z,18.37
2022-11-29T03:18:58.714Z,18.73
2022-11-29T03:21:13.858Z,30.37
2022-11-29T03:23:24.231Z,20.63
2022-11-29T03:25:34.474Z,19.13
2022-11-29T03:27:42.954Z,21.53
2022-11-29T03:29:51.149Z,21.00
2022-11-29T03:32:00.640Z,21.60
2022-11-29T03:34:13.879Z,21.90
2022-11-29T03:36:26.731Z,22.53
2022-11-29T03:38:33.946Z,20.43
2022-11-29T03:40:44.603Z,19.93
2022-11-29T03:42:54.258Z,21.63
2022-11-29T03:45:04.316Z,20.43
2022-11-29T03:47:11.098Z,17.23
2022-11-29T03:49:21.746Z,20.77
2022-11-29T03:51:44.091Z,21.53
2022-11-29T03:53:52.856Z,18.10
2022-11-29T03:55:59.966Z,20.93
2022-11-29T03:58:19.222Z,20.90
2022-11-29T04:00:22.969Z,19.53
2022-11-29T04:03:13.238Z,20.17
2022-11-29T04:05:43.072Z,23.60
2022-11-29T04:08:03.003Z,26.03
2022-11-29T04:10:18.029Z,20.10
2022-11-29T04:12:54.216Z,19.50
2022-11-29T04:15:37.561Z,18.23
2022-11-29T04:18:11.575Z,19.30
2022-11-29T04:20:56.416Z,18.80
2022-11-29T04:23:40.870Z,21.80
2022-11-29T04:26:18.594Z,16.60
2022-11-29T04:28:52.031Z,18.47
2022-11-29T04:31:03.410Z,17.50
2022-11-29T04:33:50.375Z,20.27
2022-11-29T04:36:12.985Z,18.10
2022-11-29T04:38:43.637Z,22.67
2022-11-29T04:41:16.585Z,19.43
2022-11-29T04:43:58.641Z,18.07
2022-11-29T04:46:20.167Z,21.47
2022-11-29T04:48:48.316Z,18.70
2022-11-29T04:51:00.937Z,24.60
2022-11-29T04:53:34.629Z,23.53
2022-11-29T04:55:46.844Z,21.47
2022-11-29T04:57:56.830Z,18.93
2022-11-29T05:00:09.862Z,19.70
2022-11-29T05:02:30.255Z,20.17
2022-11-29T05:04:40.770Z,22.77
2022-11-29T05:06:55.014Z,22.67
2022-11-29T05:09:08.203Z,22.07
2022-11-29T05:11:20.770Z,19.10
2022-11-29T05:13:35.943Z,20.50
2022-11-29T05:15:55.788Z,25.50
2022-11-29T05:18:07.735Z,21.80
2022-11-29T05:20:27.288Z,22.30
2022-11-29T05:22:36.482Z,18.60
2022-11-29T05:24:50.023Z,18.00
2022-11-29T05:27:00.943Z,15.90
2022-11-29T05:29:11.051Z,18.23
2022-11-29T05:31:35.309Z,18.10
2022-11-29T05:33:55.466Z,17.70
2022-11-29T05:36:07.769Z,18.23
2022-11-29T05:38:39.159Z,20.30
2022-11-29T05:40:54.764Z,20.33
2022-11-29T05:43:14.079Z,17.40
2022-11-29T05:45:25.292Z,22.37
2022-11-29T05:47:33.458Z,26.90
2022-11-29T05:49:42.251Z,20.70
2022-11-29T05:51:53.990Z,20.70
2022-11-29T05:54:08.922Z,19.23
2022-11-29T05:56:16.606Z,21.47
2022-11-29T05:58:30.764Z,21.30
2022-11-29T06:00:44.385Z,20.10
2022-11-29T06:02:57.657Z,27.87
2022-11-29T06:05:08.807Z,21.57
2022-11-29T06:07:17.784Z,21.77
2022-11-29T06:09:25.497Z,19.53
2022-11-29T06:11:34.412Z,21.20
2022-11-29T06:13:51.104Z,19.73
2022-11-29T06:16:24.924Z,18.13
2022-11-29T06:18:41.575Z,22.60
2022-11-29T06:20:53.927Z,20.60
2022-11-29T06:23:12.155Z,19.97
2022-11-29T06:25:38.009Z,24.53
2022-11-29T06:27:57.492Z,22.33
2022-11-29T06:30:06.859Z,18.67
2022-11-29T06:32:25.211Z,26.50
2022-11-29T06:34:34.148Z,20.33
2022-11-29T06:36:41.544Z,18.20
2022-11-29T06:38:45.883Z,19.03
2022-11-29T06:40:49.453Z,18.97
2022-11-29T06:42:52.552Z,20.00
2022-11-29T06:44:56.302Z,24.57
2022-11-29T06:47:07.086Z,22.33
2022-11-29T06:49:15.418Z,21.00
2022-11-29T06:51:26.739Z,31.20
2022-11-29T06:53:39.953Z,21.43
2022-11-29T06:55:53.622Z,19.70
2022-11-29T06:58:07.203Z,22.17
2022-11-29T07:00:16.997Z,18.40
2022-11-29T07:02:44.015Z,20.83
2022-11-29T07:05:01.137Z,21.90
2022-11-29T07:07:04.637Z,19.83
2022-11-29T07:09:14.867Z,18.13
2022-11-29T07:11:17.967Z,17.67
2022-11-29T07:13:22.201Z,17.20
2022-11-29T07:15:25.974Z,18.63
2022-11-29T07:17:38.564Z,18.03
2022-11-29T07:19:50.349Z,24.23
2022-11-29T07:22:02.046Z,22.10
2022-11-29T07:24:23.627Z,20.50
2022-11-29T07:26:36.220Z,26.70
2022-11-29T07:28:51.960Z,21.33
2022-11-29T07:31:03.488Z,21.27
2022-11-29T07:33:16.625Z,23.27
2022-11-29T07:35:33.638Z,25.17
2022-11-29T07:37:45.302Z,27.93
2022-11-29T07:39:57.701Z,27.60
2022-11-29T07:42:08.307Z,24.23
2022-11-29T07:44:20.434Z,22.00
2022-11-29T07:46:23.939Z,21.33
2022-11-29T07:48:26.954Z,34.53
2022-11-29T07:50:30.979Z,28.13
2022-11-29T07:52:34.858Z,32.60
2022-11-29T07:54:39.429Z,29.63
2022-11-29T07:56:42.341Z,27.00
2022-11-29T07:58:45.495Z,24.83
2022-11-29T08:00:48.707Z,23.03
2022-11-29T08:02:52.649Z,24.07
2022-11-29T08:04:55.552Z,28.97
2022-11-29T08:07:00.016Z,23.43
2022-11-29T08:09:03.102Z,16.03
2022-11-29T08:11:11.799Z,36.73
2022-11-29T08:13:15.307Z,29.77
2022-11-29T08:15:19.036Z,33.93
2022-11-29T08:17:22.544Z,46.63
2022-11-29T08:19:39.263Z,20.43
2022-11-29T08:21:46.799Z,26.67
2022-11-29T08:23:50.377Z,28.90
2022-11-29T08:26:00.161Z,26.27
2022-11-29T08:28:03.769Z,20.20
2022-11-29T08:30:07.900Z,21.57
2022-11-29T08:32:10.772Z,22.93
2022-11-29T08:34:13.802Z,21.50
2022-11-29T08:36:19.705Z,24.67
2022-11-29T08:38:22.530Z,21.90
2022-11-29T08:40:25.395Z,43.83
2022-11-29T08:42:28.255Z,33.27
2022-11-29T08:44:31.273Z,33.07
2022-11-29T08:46:48.023Z,32.10
2022-11-29T08:48:50.910Z,51.27
2022-11-29T08:50:55.634Z,29.10
2022-11-29T08:53:17.519Z,20.23
2022-11-29T08:55:21.721Z,42.43
2022-11-29T08:57:39.733Z,43.40
2022-11-29T08:59:44.997Z,33.20
2022-11-29T09:01:48.086Z,24.83
2022-11-29T09:04:07.725Z,34.80
2022-11-29T09:06:13.064Z,32.00
2022-11-29T09:08:17.251Z,19.70
2022-11-29T09:10:20.157Z,31.53
2022-11-29T09:12:22.934Z,24.57
2022-11-29T09:14:25.879Z,23.40
2022-11-29T09:16:30.802Z,22.33
2022-11-29T09:18:33.627Z,32.60
2022-11-29T09:20:36.481Z,23.53
2022-11-29T09:22:39.317Z,23.40
2022-11-29T09:24:43.856Z,15.03
2022-11-29T09:26:48.424Z,15.30
2022-11-29T09:28:51.265Z,13.97
2022-11-29T09:30:54.194Z,14.23
2022-11-29T09:32:57.023Z,13.57
2022-11-29T09:34:59.835Z,14.93
2022-11-29T09:37:02.868Z,13.97
2022-11-29T09:39:05.700Z,17.63
2022-11-29T09:41:23.183Z,16.73
2022-11-29T09:43:34.646Z,15.10
2022-11-29T09:45:41.450Z,13.13
2022-11-29T09:48:04.858Z,14.17
2022-11-29T09:50:22.224Z,17.00
2022-11-29T09:52:37.928Z,13.20
2022-11-29T09:54:52.917Z,18.27
2022-11-29T09:56:58.184Z,17.63
2022-11-29T09:59:04.741Z,15.07
2022-11-29T10:01:11.883Z,13.30
2022-11-29T10:03:23.217Z,21.13
2022-11-29T10:05:31.000Z,15.10
2022-11-29T10:07:39.114Z,17.07
2022-11-29T10:09:45.985Z,14.73
2022-11-29T10:12:03.173Z,19.23
2022-11-29T10:14:13.901Z,15.40
2022-11-29T10:16:24.541Z,13.90
2022-11-29T10:18:34.857Z,17.47
2022-11-29T10:20:44.660Z,17.00
2022-11-29T10:22:56.425Z,14.97
2022-11-29T10:25:02.281Z,13.70
2022-11-29T10:27:15.216Z,10.97
2022-11-29T10:29:18.243Z,12.80
2022-11-29T10:31:25.030Z,14.30
2022-11-29T10:33:31.515Z,12.73
2022-11-29T10:35:34.701Z,11.50
2022-11-29T10:37:37.676Z,11.13
2022-11-29T10:39:45.532Z,10.43
2022-11-29T10:41:52.648Z,11.33
2022-11-29T10:43:59.315Z,14.03
2022-11-29T10:46:02.559Z,11.07
2022-11-29T10:48:08.998Z,10.17
2022-11-29T10:50:17.655Z,10.03
2022-11-29T10:52:22.439Z,11.53
2022-11-29T10:54:39.346Z,11.07
2022-11-29T10:56:43.027Z,13.57
2022-11-29T10:58:58.000Z,14.27
2022-11-29T11:01:02.602Z,14.50
2022-11-29T11:03:24.027Z,12.73
2022-11-29T11:05:27.951Z,10.97
2022-11-29T11:07:33.331Z,11.70
2022-11-29T11:09:38.912Z,11.83
2022-11-29T11:11:45.145Z,12.93
2022-11-29T11:14:00.585Z,11.80
2022-11-29T11:16:11.256Z,11.37
2022-11-29T11:18:22.472Z,11.40
2022-11-29T11:20:26.898Z,13.23
2022-11-29T11:22:32.497Z,12.33
2022-11-29T11:24:40.709Z,15.77
2022-11-29T11:26:45.416Z,11.47
2022-11-29T11:28:53.987Z,10.17
2022-11-29T11:31:01.076Z,16.10
2022-11-29T11:33:20.289Z,11.43
2022-11-29T11:35:25.129Z,13.50
2022-11-29T11:37:29.509Z,11.23
2022-11-29T11:39:32.422Z,14.07
2022-11-29T11:41:56.158Z,14.13
2022-11-29T11:44:01.324Z,16.77
2022-11-29T11:46:08.317Z,18.00
2022-11-29T11:48:15.290Z,21.47
2022-11-29T11:50:28.566Z,22.37
2022-11-29T11:52:40.152Z,19.43
2022-11-29T11:54:47.287Z,17.00
2022-11-29T11:56:50.483Z,21.63
2022-11-29T11:58:55.695Z,25.07
2022-11-29T12:01:05.106Z,11.97
2022-11-29T12:03:32.533Z,19.50
2022-11-29T12:05:35.470Z,14.27
2022-11-29T12:08:07.462Z,18.07
2022-11-29T12:10:18.680Z,37.30
2022-11-29T12:12:25.076Z,21.13
2022-11-29T12:14:35.870Z,15.30
2022-11-29T12:16:41.411Z,14.93
2022-11-29T12:18:50.811Z,13.83
2022-11-29T12:20:58.132Z,15.27
2022-11-29T12:23:20.531Z,14.83
2022-11-29T12:25:28.050Z,16.07
2022-11-29T12:27:32.180Z,16.10
2022-11-29T12:29:36.112Z,19.37
2022-11-29T12:31:55.174Z,15.70
2022-11-29T12:34:11.116Z,13.57
2022-11-29T12:36:24.207Z,12.57
2022-11-29T12:38:53.163Z,12.43
2022-11-29T12:41:03.828Z,13.03
2022-11-29T12:43:17.154Z,13.40
2022-11-29T12:45:35.330Z,13.23
2022-11-29T12:47:52.013Z,12.73
2022-11-29T12:50:08.317Z,10.57
2022-11-29T12:52:19.871Z,12.07
2022-11-29T12:54:39.971Z,11.20
2022-11-29T12:56:47.540Z,14.63
2022-11-29T12:59:02.015Z,10.77
2022-11-29T13:01:15.415Z,10.83
2022-11-29T13:03:27.184Z,13.63
2022-11-29T13:05:44.950Z,13.83
2022-11-29T13:08:08.329Z,14.83
2022-11-29T13:10:27.005Z,14.27
2022-11-29T13:12:37.378Z,15.67
2022-11-29T13:14:49.594Z,18.33
2022-11-29T13:16:58.857Z,18.13
2022-11-29T13:19:08.199Z,19.63
2022-11-29T13:21:15.978Z,19.43
2022-11-29T13:23:39.000Z,15.67
2022-11-29T13:25:51.794Z,18.40
2022-11-29T13:27:58.441Z,23.07
2022-11-29T13:30:02.491Z,27.03
2022-11-29T13:32:14.292Z,19.37
2022-11-29T13:34:23.487Z,35.30
2022-11-29T13:36:34.205Z,22.30
2022-11-29T13:38:43.134Z,20.27
2022-11-29T13:40:55.388Z,27.17
2022-11-29T13:43:05.017Z,26.20
2022-11-29T13:45:17.784Z,29.47
2022-11-29T13:47:21.503Z,48.07
2022-11-29T13:49:51.677Z,34.50
2022-11-29T13:52:06.985Z,17.47
2022-11-29T13:54:29.047Z,26.50
2022-11-29T13:56:42.849Z,83.50
2022-11-29T13:58:45.747Z,41.10
2022-11-29T14:00:52.675Z,27.57
2022-11-29T14:02:56.138Z,16.13
2022-11-29T14:04:59.501Z,17.37
2022-11-29T14:07:10.026Z,17.07
2022-11-29T14:09:24.703Z,18.20
2022-11-29T14:11:32.594Z,15.77
2022-11-29T14:13:44.885Z,15.97
2022-11-29T14:15:56.252Z,15.27
2022-11-29T14:18:01.298Z,14.90
2022-11-29T14:20:52.606Z,18.10
2022-11-29T14:23:17.062Z,15.43
2022-11-29T14:25:50.452Z,16.93
2022-11-29T14:28:01.741Z,16.83
2022-11-29T14:30:04.928Z,16.00
2022-11-29T14:32:23.417Z,13.77
2022-11-29T14:34:40.048Z,16.87
2022-11-29T14:36:51.108Z,15.27
2022-11-29T14:39:06.022Z,14.20
2022-11-29T14:41:23.295Z,16.07
2022-11-29T14:43:34.206Z,15.23
2022-11-29T14:45:37.178Z,15.33
2022-11-29T14:47:49.862Z,16.93
2022-11-29T14:49:55.601Z,16.73
2022-11-29T14:52:20.048Z,18.43
2022-11-29T14:54:24.316Z,21.07
2022-11-29T14:56:39.520Z,23.33
2022-11-29T14:58:42.610Z,20.10
2022-11-29T15:01:09.591Z,22.07
2022-11-29T15:03:19.924Z,22.83
2022-11-29T15:05:28.930Z,20.10
2022-11-29T15:07:33.682Z,18.30
2022-11-29T15:09:39.094Z,20.90
2022-11-29T15:11:50.220Z,19.77
2022-11-29T15:14:00.378Z,22.07
2022-11-29T15:16:35.619Z,20.70
2022-11-29T15:19:05.234Z,23.10
2022-11-29T15:21:20.927Z,19.37
2022-11-29T15:23:23.956Z,17.50
2022-11-29T15:25:31.836Z,17.53
2022-11-29T15:27:39.870Z,18.43
2022-11-29T15:29:43.243Z,20.43
2022-11-29T15:31:50.662Z,18.40
2022-11-29T15:33:53.542Z,18.07
2022-11-29T15:36:04.124Z,17.17
2022-11-29T15:38:06.972Z,16.90
2022-11-29T15:40:15.400Z,19.63
2022-11-29T15:42:19.560Z,17.87
2022-11-29T15:44:23.626Z,23.33
2022-11-29T15:46:27.862Z,20.57
2022-11-29T15:48:32.537Z,19.17
2022-11-29T15:50:35.811Z,21.57
2022-11-29T15:52:39.414Z,20.40
2022-11-29T15:54:44.634Z,23.00
2022-11-29T15:56:51.888Z,26.70
2022-11-29T15:59:02.509Z,26.43
2022-11-29T16:01:06.206Z,32.13
2022-11-29T16:03:19.893Z,37.60
2022-11-29T16:05:26.078Z,23.63
2022-11-29T16:07:32.282Z,22.70
2022-11-29T16:09:41.631Z,26.23
2022-11-29T16:11:45.301Z,23.53
2022-11-29T16:14:05.189Z,27.60
2022-11-29T16:16:15.031Z,29.53
2022-11-29T16:18:26.383Z,26.77
2022-11-29T16:20:30.076Z,27.53
2022-11-29T16:22:32.902Z,33.67
2022-11-29T16:24:37.497Z,26.03
2022-11-29T16:26:43.312Z,34.00
2022-11-29T16:28:48.014Z,37.40
2022-11-29T16:30:52.533Z,34.07
2022-11-29T16:32:57.556Z,36.53
2022-11-29T16:35:08.762Z,41.17
2022-11-29T16:37:18.810Z,35.67
2022-11-29T16:39:25.087Z,44.53
2022-11-29T16:41:33.304Z,33.37
2022-11-29T16:43:53.623Z,44.80
2022-11-29T16:48:32.251Z,43.17
2022-11-29T16:50:35.142Z,39.17
2022-11-29T16:52:37.941Z,33.87
2022-11-29T16:54:42.365Z,32.67
2022-11-29T16:56:45.203Z,32.90
2022-11-29T16:59:20.579Z,28.70
2022-11-29T17:01:20.131Z,31.20
2022-11-29T17:03:23.467Z,30.10
2022-11-29T17:05:31.491Z,40.70
2022-11-29T17:07:38.234Z,33.53
2022-11-29T17:09:41.131Z,36.17
2022-11-29T17:11:43.950Z,39.50
2022-11-29T17:13:47.593Z,40.03
2022-11-29T17:15:50.397Z,31.83
2022-11-29T17:17:53.229Z,29.90
2022-11-29T17:19:56.075Z,32.13
2022-11-29T17:22:00.512Z,35.87
2022-11-29T17:24:03.499Z,34.47
2022-11-29T17:26:07.582Z,33.07
2022-11-29T17:28:10.357Z,33.47
2022-11-29T17:30:14.376Z,32.20
2022-11-29T17:32:18.407Z,31.97
2022-11-29T17:34:23.549Z,39.67
2022-11-29T17:36:26.716Z,40.43
2022-11-29T17:38:32.450Z,33.00
2022-11-29T17:40:35.286Z,37.27
2022-11-29T17:42:38.297Z,31.80
2022-11-29T17:44:41.216Z,31.60
2022-11-29T17:46:44.065Z,33.20
2022-11-29T17:48:47.077Z,33.40
2022-11-29T17:50:49.870Z,33.80
2022-11-29T17:52:52.785Z,37.83
2022-11-29T17:54:56.948Z,51.17
2022-11-29T17:56:59.955Z,43.63
2022-11-29T17:59:03.836Z,47.77
2022-11-29T18:01:08.125Z,43.37
2022-11-29T18:03:11.053Z,43.30
2022-11-29T18:05:13.890Z,43.03
2022-11-29T18:07:17.242Z,40.17
2022-11-29T18:09:20.506Z,46.30
2022-11-29T18:11:28.826Z,42.50
2022-11-29T18:13:31.746Z,32.90
2022-11-29T18:15:34.632Z,35.93
2022-11-29T18:17:37.505Z,35.47
2022-11-29T18:19:40.337Z,36.37
2022-11-29T18:21:43.633Z,33.43
2022-11-29T18:23:46.550Z,33.80
2022-11-29T18:25:56.819Z,32.43
2022-11-29T18:28:01.022Z,35.33
2022-11-29T18:30:03.975Z,30.27
2022-11-29T18:32:06.883Z,37.80
2022-11-29T18:34:11.358Z,36.57
2022-11-29T18:36:16.873Z,37.67
2022-11-29T18:38:19.685Z,42.97
2022-11-29T18:40:23.474Z,38.97
2022-11-29T18:42:26.294Z,39.03
2022-11-29T18:44:30.536Z,37.83
2022-11-29T18:46:35.699Z,42.47
2022-11-29T18:48:38.787Z,38.17
2022-11-29T18:50:41.587Z,38.40
2022-11-29T18:52:44.438Z,40.97
2022-11-29T18:54:47.564Z,42.50
2022-11-29T18:56:51.708Z,31.87
2022-11-29T18:58:58.348Z,33.73
2022-11-29T19:01:08.734Z,30.87
2022-11-29T19:03:11.589Z,45.60
2022-11-29T19:05:14.394Z,35.87
2022-11-29T19:07:17.327Z,38.13
2022-11-29T19:09:21.979Z,37.00
2022-11-29T19:11:28.455Z,33.27
2022-11-29T19:13:31.340Z,29.80
2022-11-29T19:15:34.291Z,31.27
2022-11-29T19:17:42.978Z,31.53
2022-11-29T19:19:46.598Z,27.87
2022-11-29T19:21:49.889Z,24.83
2022-11-29T19:23:54.214Z,24.93
2022-11-29T19:26:02.945Z,32.73
2022-11-29T19:28:12.583Z,29.07
2022-11-29T19:30:17.757Z,31.20
2022-11-29T19:32:20.912Z,31.20
2022-11-29T19:34:25.360Z,29.73
2022-11-29T19:36:30.306Z,28.07
2022-11-29T19:38:33.662Z,31.03
2022-11-29T19:40:36.491Z,28.00
2022-11-29T19:42:39.591Z,29.50
2022-11-29T19:45:14.795Z,25.97
2022-11-29T19:47:05.499Z,26.23
2022-11-29T19:49:09.658Z,28.70
2022-11-29T19:51:17.425Z,26.70
2022-11-29T19:53:20.510Z,24.47
2022-11-29T19:55:23.451Z,26.80
2022-11-29T19:57:26.340Z,26.03
2022-11-29T19:59:29.210Z,31.77
2022-11-29T20:01:40.212Z,26.23
2022-11-29T20:03:47.499Z,24.67
2022-11-29T20:05:56.247Z,29.13
2022-11-29T20:08:00.713Z,27.50
2022-11-29T20:10:03.633Z,27.43
2022-11-29T20:12:06.789Z,29.37
2022-11-29T20:14:12.236Z,28.47
2022-11-29T20:16:18.296Z,28.67
2022-11-29T20:18:21.216Z,28.93
2022-11-29T20:20:24.188Z,31.80
2022-11-29T20:22:27.039Z,30.77
2022-11-29T20:24:36.611Z,31.93
2022-11-29T20:26:44.044Z,37.30
2022-11-29T20:28:47.721Z,30.60
2022-11-29T20:30:50.766Z,32.13
2022-11-29T20:32:53.821Z,33.43
2022-11-29T20:34:58.433Z,30.93
2022-11-29T20:37:21.867Z,30.73
2022-11-29T20:39:34.358Z,30.63
2022-11-29T20:41:42.517Z,29.97
2022-11-29T20:43:51.366Z,29.23
2022-11-29T20:45:54.510Z,28.50
2022-11-29T20:48:01.734Z,32.17
2022-11-29T20:50:05.168Z,35.30
2022-11-29T20:52:11.933Z,36.57
2022-11-29T20:54:16.089Z,30.70
2022-11-29T20:56:20.307Z,31.70
2022-11-29T20:58:23.201Z,30.33
2022-11-29T21:00:26.169Z,28.87
2022-11-29T21:02:29.010Z,29.00
2022-11-29T21:04:31.888Z,30.77
2022-11-29T21:06:38.378Z,33.73
2022-11-29T21:08:41.480Z,33.97
2022-11-29T21:10:45.356Z,34.73
2022-11-29T21:12:50.571Z,35.73
2022-11-29T21:14:53.906Z,33.73
2022-11-29T21:16:57.375Z,31.17
2022-11-29T21:19:02.508Z,34.80
2022-11-29T21:21:17.987Z,31.57
2022-11-29T21:23:28.303Z,34.73
2022-11-29T21:25:42.264Z,32.90
2022-11-29T21:27:45.701Z,32.33
2022-11-29T21:29:50.815Z,37.47
2022-11-29T21:31:55.808Z,38.80
2022-11-29T21:33:59.190Z,38.20
2022-11-29T21:36:03.734Z,39.90
2022-11-29T21:38:10.527Z,39.87
2022-11-29T21:40:14.945Z,44.03
2022-11-29T21:42:17.851Z,37.67
2022-11-29T21:44:20.770Z,39.67
2022-11-29T21:46:25.074Z,41.03
2022-11-29T21:48:37.703Z,36.93
2022-11-29T21:50:40.611Z,43.33
2022-11-29T21:52:44.283Z,39.77
2022-11-29T21:54:47.423Z,42.80
2022-11-29T21:56:50.339Z,45.47
2022-11-29T21:58:53.363Z,40.67
2022-11-29T22:00:56.294Z,39.37
2022-11-29T22:03:00.534Z,40.00
2022-11-29T22:05:03.405Z,39.17
2022-11-29T22:07:06.284Z,36.87
2022-11-29T22:09:09.358Z,40.77
2022-11-29T22:11:14.381Z,47.73
2022-11-29T22:13:17.212Z,46.90
2022-11-29T22:15:24.630Z,45.03
2022-11-29T22:17:30.722Z,36.73
2022-11-29T22:19:36.537Z,42.30
2022-11-29T22:21:40.336Z,41.03
2022-11-29T22:23:43.191Z,55.23
2022-11-29T22:25:45.971Z,47.87
2022-11-29T22:27:50.730Z,42.03
2022-11-29T22:29:53.567Z,37.60
2022-11-29T22:31:57.559Z,41.03
2022-11-29T22:34:00.854Z,40.57
2022-11-29T22:36:06.225Z,39.33
2022-11-29T22:38:09.069Z,42.73
2022-11-29T22:40:12.729Z,38.27
2022-11-29T22:42:15.561Z,37.40
2022-11-29T22:44:18.440Z,39.20
2022-11-29T22:46:23.458Z,38.20
2022-11-29T22:48:26.356Z,43.47
2022-11-29T22:50:29.186Z,34.03
2022-11-29T22:52:33.362Z,37.47
2022-11-29T22:54:36.179Z,42.23
2022-11-29T22:56:40.960Z,35.27
2022-11-29T22:58:43.832Z,35.63
2022-11-29T23:00:46.635Z,32.53
2022-11-29T23:02:49.522Z,35.00
2022-11-29T23:04:52.319Z,36.27
2022-11-29T23:06:55.130Z,37.67
2022-11-29T23:09:03.962Z,39.03
2022-11-29T23:11:09.315Z,34.07
2022-11-29T23:13:12.146Z,32.50
2022-11-29T23:15:15.098Z,32.60
2022-11-29T23:17:17.950Z,31.33
2022-11-29T23:19:21.159Z,29.70
2022-11-29T23:21:26.076Z,27.40
2022-11-29T23:23:29.077Z,34.17
2022-11-29T23:25:33.267Z,33.23
2022-11-29T23:27:36.111Z,34.47
2022-11-29T23:29:38.984Z,32.73
2022-11-29T23:31:42.081Z,27.63
2022-11-29T23:33:45.022Z,28.53
2022-11-29T23:35:47.977Z,29.33
2022-11-29T23:37:50.838Z,27.40
2022-11-29T23:39:53.679Z,29.67
2022-11-29T23:41:57.872Z,26.10
2022-11-29T23:44:00.694Z,30.70
2022-11-29T23:46:07.412Z,30.57
2022-11-29T23:48:10.266Z,27.27
2022-11-29T23:50:13.517Z,28.73
2022-11-29T23:52:16.367Z,29.67
2022-11-29T23:54:19.181Z,31.70
2022-11-29T23:56:23.245Z,30.23
2022-11-29T23:58:28.659Z,29.07
